Startpagina
METAR-TAF:

METAR-TAF

Vliegvelden :

Internationale luchthaven Koning Abdoel Aziz

Djedda, Saoedi-Arabië

breedte: 21-42N, lengte: 039-11E, hoogte: 15 m

Actueel weer

Dit bericht is 59 minuten geleden gemaakt, om 03:00 UTC
Wind 4 kt uit het noorden
Temperatuur 22°C
Vochtigheid 65%
Druk 1015 hPa
Zicht 10 km of meer
geen wolken onder 1500 m en geen cumulonimbus

METAR: OEJN 100300Z 36004KT CAVOK 22/15 Q1015 NOSIG

Tijdstip: 06:59 (03:59 UTC)

Verwachting

Dit bericht is 4 uur en het 59 minuten geleden gemaakt, om 23:00 UTC
Verwachting geldig van 10 om 00 UTC tot 11 om 06 UTC
Wind 6 kt uit het oostnoordoosten
Zicht: 7000 m
Verspreide wolken op 4000 ft
Wijzigt naar
van 10 om 06 UTC tot 10 om 08 UTC
Wind 14 kt uit het noordnoordwesten

TAF: OEJN 092300Z 1000/1106 06006KT 7000 SCT040 BECMG 1006/1008 33014KT

Waarnemingen en weersverwachtingen van meer dan 4000 vliegvelden (METAR en TAF).

De beschikbare stations zijn de gele en rode punten op de kaart.

Ga met uw muis naar het station om de naam te zien.

Klik dan om waarnemingen en weersverwachtingen te zien.

kaart wijzigen: klik op de groene knoppen met een zwart kruis om in te zoomen, op de groene knop met een streepje om uit te zoomen of op de groene pijlen voor aangrenzende kaarten.


METAR-TAF: